^^
Grace C. Lehan Memorial Weather Station Historical Data
Daily Summary for March 12, 2021 Units:  Metric    English   Both
Daily Weekly Monthly Yearly
  High: Low: Average:
Temperature: 6.4 °C -4.3 °C 0.8 °C
Dew Point: -0.7 °C -5.8 °C -3.4 °C
Humidity: 91% 55.1% 75%
Wind Speed: 9.8km/h 0km/h 1.1km/h
Wind Gust: 25.7km/h - -
Wind- - NW
Pressure: 1020.2 hPa 1017.5 hPa -
Precipitation: 0 mm    
 
 
Tabular Data for March 12, 2021
Time Temperature Dew Point Pressure Wind Wind Speed Wind Gust Humidity Rainfall Rate (Hourly) solar
00:04 -1.6 °C -4.3 °C 1019.5 hPa Calm     82% 0 mm 0 W/m2
00:09 -1.7 °C -4.4 °C 1019.5 hPa Calm     82% 0 mm 0 W/m2
00:14 -1.8 °C -4.4 °C 1019.5 hPa Calm     82.3% 0 mm 0 W/m2
00:19 -1.8 °C -4.3 °C 1019.5 hPa Calm     83% 0 mm 0 W/m2
00:24 -1.8 °C -4.3 °C 1019.5 hPa Calm     83% 0 mm 0 W/m2
00:29 -1.7 °C -4.2 °C 1019.5 hPa Calm     83% 0 mm 0 W/m2
00:34 -1.7 °C -4.2 °C 1019.5 hPa Calm     83% 0 mm 0 W/m2
00:39 -1.7 °C -4.2 °C 1019.5 hPa Calm     83% 0 mm 0 W/m2
00:44 -1.7 °C -4.2 °C 1019.5 hPa Calm     83% 0 mm 0 W/m2
00:49 -1.8 °C -4.3 °C 1019.5 hPa Calm     83% 0 mm 0 W/m2
00:54 -1.8 °C -4.3 °C 1019.5 hPa Calm     83% 0 mm 0 W/m2
00:59 -1.9 °C -4.4 °C 1019.2 hPa Calm     83% 0 mm 0 W/m2
01:04 -1.9 °C -4.4 °C 1019.2 hPa Calm     83% 0 mm 0 W/m2
01:09 -2 °C -4.5 °C 1019.2 hPa Calm     83% 0 mm 0 W/m2
01:14 -2.1 °C -4.6 °C 1019.2 hPa Calm     83% 0 mm 0 W/m2
01:19 -2.1 °C -4.4 °C 1019.2 hPa Calm     84% 0 mm 0 W/m2
01:24 -2.2 °C -4.5 °C 1019.2 hPa Calm     84% 0 mm 0 W/m2
01:29 -2.2 °C -4.6 °C 1019.2 hPa Calm     84% 0 mm 0 W/m2
01:34 -2.3 °C -4.6 °C 1019.5 hPa Calm     84% 0 mm 0 W/m2
01:39 -2.3 °C -4.7 °C 1019.2 hPa Calm     84% 0 mm 0 W/m2
01:44 -2.4 °C -4.8 °C 1019.2 hPa Calm     84% 0 mm 0 W/m2
01:49 -2.5 °C -4.8 °C 1019.5 hPa Calm     84% 0 mm 0 W/m2
01:54 -2.6 °C -4.9 °C 1019.5 hPa Calm     84% 0 mm 0 W/m2
01:59 -2.7 °C -4.9 °C 1019.2 hPa Calm     84% 0 mm 0 W/m2
02:04 -2.7 °C -4.9 °C 1019.5 hPa Calm     84.8% 0 mm 0 W/m2
02:09 -2.7 °C -4.9 °C 1019.2 hPa Calm     85% 0 mm 0 W/m2
02:14 -2.7 °C -4.9 °C 1019.2 hPa WNW 0.3 km/h 3.2 km/h 85% 0 mm 0 W/m2
02:19 -2.7 °C -4.8 °C 1019.2 hPa WNW 0.2 km/h 3.2 km/h 85.9% 0 mm 0 W/m2
02:24 -2.7 °C -4.7 °C 1019.2 hPa Calm   3.2 km/h 86% 0 mm 0 W/m2
02:29 -2.7 °C -4.7 °C 1019.2 hPa Calm   3.2 km/h 86% 0 mm 0 W/m2
02:34 -2.7 °C -4.7 °C 1019.2 hPa Calm   3.2 km/h 86% 0 mm 0 W/m2
02:39 -2.8 °C -4.8 °C 1019.2 hPa Calm     86% 0 mm 0 W/m2
02:44 -2.8 °C -4.8 °C 1019.2 hPa Calm     86% 0 mm 0 W/m2
02:49 -2.7 °C -4.7 °C 1019.2 hPa Calm     86% 0 mm 0 W/m2
02:54 -2.7 °C -4.7 °C 1018.8 hPa Calm     86% 0 mm 0 W/m2
02:59 -2.7 °C -4.6 °C 1018.8 hPa Calm     86.6% 0 mm 0 W/m2
03:04 -2.7 °C -4.7 °C 1018.8 hPa Calm     86% 0 mm 0 W/m2
03:09 -2.7 °C -4.7 °C 1018.8 hPa Calm     86% 0 mm 0 W/m2
03:14 -2.7 °C -4.7 °C 1018.8 hPa Calm     86% 0 mm 0 W/m2
03:19 -2.8 °C -4.8 °C 1018.8 hPa Calm     86% 0 mm 0 W/m2
03:24 -2.9 °C -5.1 °C 1018.5 hPa Calm     85.3% 0 mm 0 W/m2
03:29 -3.1 °C -5.1 °C 1018.8 hPa Calm     86% 0 mm 0 W/m2
03:34 -3.2 °C -5.2 °C 1018.5 hPa Calm     86.1% 0 mm 0 W/m2
03:39 -3.2 °C -5.1 °C 1018.8 hPa Calm     87% 0 mm 0 W/m2
03:44 -3.2 °C -5.1 °C 1018.5 hPa Calm     87% 0 mm 0 W/m2
03:49 -3.2 °C -5 °C 1018.5 hPa Calm     87.1% 0 mm 0 W/m2
03:54 -3.2 °C -4.9 °C 1018.5 hPa Calm     88% 0 mm 0 W/m2
03:59 -3.2 °C -4.9 °C 1018.5 hPa Calm     87.6% 0 mm 0 W/m2
04:04 -3.2 °C -5.1 °C 1018.5 hPa Calm     87% 0 mm 0 W/m2
04:09 -3.2 °C -5.1 °C 1018.5 hPa Calm     87.2% 0 mm 0 W/m2
04:14 -3.2 °C -4.9 °C 1018.5 hPa Calm     88% 0 mm 0 W/m2
04:19 -3.2 °C -4.9 °C 1018.5 hPa Calm     88% 0 mm 0 W/m2
04:24 -3.2 °C -4.9 °C 1018.5 hPa Calm     88% 0 mm 0 W/m2
04:29 -3.1 °C -4.8 °C 1018.5 hPa Calm     88% 0 mm 0 W/m2
04:34 -3.1 °C -4.8 °C 1018.5 hPa Calm     88% 0 mm 0 W/m2
04:39 -3.1 °C -4.8 °C 1018.5 hPa Calm     88% 0 mm 0 W/m2
04:44 -3 °C -4.7 °C 1018.5 hPa Calm     88% 0 mm 0 W/m2
04:49 -3 °C -4.7 °C 1018.5 hPa Calm     88% 0 mm 0 W/m2
04:54 -3.1 °C -4.7 °C 1018.5 hPa Calm     88% 0 mm 0 W/m2
04:59 -3.1 °C -5 °C 1018.5 hPa WNW 0.2 km/h 4.8 km/h 87% 0 mm 0 W/m2
05:04 -3.2 °C -5.1 °C 1018.5 hPa WNW 0.2 km/h 4.8 km/h 87% 0 mm 0 W/m2
05:09 -3.4 °C -5.2 °C 1018.5 hPa Calm   3.2 km/h 87% 0 mm 0 W/m2
05:14 -3.5 °C -5.3 °C 1018.5 hPa Calm   3.2 km/h 87% 0 mm 0 W/m2
05:19 -3.6 °C -5.4 °C 1018.5 hPa Calm   3.2 km/h 87% 0 mm 0 W/m2
05:24 -3.6 °C -5.3 °C 1018.8 hPa Calm   3.2 km/h 87.7% 0 mm 0 W/m2
05:29 -3.6 °C -5.3 °C 1018.5 hPa Calm   3.2 km/h 88% 0 mm 0 W/m2
05:34 -3.7 °C -5.3 °C 1018.5 hPa Calm   3.2 km/h 88% 0 mm 0 W/m2
05:39 -3.7 °C -5.3 °C 1018.5 hPa Calm     88% 0 mm 0 W/m2
05:44 -3.6 °C -5.3 °C 1018.5 hPa WNW 0.2 km/h 1.6 km/h 88% 0 mm 0 W/m2
05:49 -3.7 °C -5.3 °C 1018.8 hPa Calm   1.6 km/h 88% 0 mm 0 W/m2
05:53 -3.7 °C -5.4 °C 1018.8 hPa Calm   1.6 km/h 88% 0 mm 0 W/m2
05:59 -3.8 °C -5.4 °C 1018.8 hPa Calm   1.6 km/h 88% 0 mm 0 W/m2
06:04 -3.8 °C -5.4 °C 1018.5 hPa Calm   1.6 km/h 88% 0 mm 0 W/m2
06:09 -3.8 °C -5.3 °C 1018.8 hPa Calm     89% 0 mm 0 W/m2
06:14 -3.8 °C -5.4 °C 1018.8 hPa Calm     89% 0 mm 0 W/m2
06:19 -3.9 °C -5.4 °C 1018.8 hPa Calm     88.9% 0 mm 0 W/m2
06:24 -3.9 °C -5.6 °C 1018.8 hPa Calm     88% 0 mm 0 W/m2
06:29 -3.9 °C -5.6 °C 1019.2 hPa Calm     88.5% 0 mm 0 W/m2
06:34 -4 °C -5.6 °C 1018.8 hPa Calm     89% 0 mm 0 W/m2
06:39 -4 °C -5.6 °C 1018.8 hPa Calm     89% 0 mm 0 W/m2
06:44 -4.1 °C -5.6 °C 1019.2 hPa Calm     89% 0 mm 0 W/m2
06:49 -4.1 °C -5.7 °C 1019.2 hPa Calm     89% 0 mm 0 W/m2
06:54 -4.2 °C -5.7 °C 1019.2 hPa Calm     89% 0 mm 0 W/m2
06:59 -4.2 °C -5.8 °C 1019.2 hPa Calm     89% 0 mm 0 W/m2
07:04 -4.2 °C -5.8 °C 1019.2 hPa Calm     89% 0 mm 0 W/m2
07:09 -4.3 °C -5.8 °C 1019.2 hPa Calm     89% 0 mm 5 W/m2
07:14 -4.2 °C -5.8 °C 1019.5 hPa Calm     89% 0 mm 5 W/m2
07:19 -4.2 °C -5.7 °C 1019.2 hPa Calm     89.4% 0 mm 5 W/m2
07:24 -4.2 °C -5.6 °C 1019.2 hPa Calm     90% 0 mm 11 W/m2
07:29 -4.1 °C -5.5 °C 1019.2 hPa Calm     90% 0 mm 12 W/m2
07:34 -4.1 °C -5.4 °C 1019.2 hPa Calm     90% 0 mm 16 W/m2
07:39 -4 °C -5.4 °C 1019.2 hPa Calm     90% 0 mm 19 W/m2
07:44 -3.9 °C -5.3 °C 1019.2 hPa Calm     90% 0 mm 32 W/m2
07:49 -3.9 °C -5.3 °C 1019.2 hPa Calm     90% 0 mm 40 W/m2
07:54 -3.9 °C -5.3 °C 1019.2 hPa Calm     90% 0 mm 40 W/m2
07:59 -3.8 °C -5.2 °C 1019.2 hPa Calm     90% 0 mm 40 W/m2
08:04 -3.7 °C -5 °C 1019.5 hPa Calm     90.8% 0 mm 46 W/m2
08:09 -3.6 °C -4.8 °C 1019.5 hPa Calm     91% 0 mm 46 W/m2
08:14 -3.4 °C -4.7 °C 1019.5 hPa Calm     91% 0 mm 46 W/m2
08:19 -3.3 °C -4.6 °C 1019.5 hPa Calm     90.9% 0 mm 49 W/m2
08:24 -3.3 °C -4.7 °C 1019.5 hPa Calm     90% 0 mm 56 W/m2
08:29 -3.2 °C -4.6 °C 1019.5 hPa Calm     90% 0 mm 67 W/m2
08:34 -3.1 °C -4.4 °C 1019.5 hPa Calm     90% 0 mm 86 W/m2
08:39 -2.9 °C -4.3 °C 1019.5 hPa Calm     90% 0 mm 97 W/m2
08:44 -2.7 °C -4.1 °C 1019.9 hPa Calm     90.1% 0 mm 104 W/m2
08:49 -2.6 °C -3.9 °C 1019.9 hPa Calm     90% 0 mm 114 W/m2
08:54 -2.3 °C -3.8 °C 1019.9 hPa Calm     90% 0 mm 125 W/m2
08:59 -2.1 °C -3.5 °C 1019.9 hPa Calm     90% 0 mm 149 W/m2
09:04 -1.8 °C -3.2 °C 1019.9 hPa Calm     90% 0 mm 156 W/m2
09:09 -1.4 °C -2.8 °C 1020.2 hPa Calm     90% 0 mm 183 W/m2
09:14 -1.1 °C -2.4 °C 1020.2 hPa Calm     90% 0 mm 183 W/m2
09:19 -0.7 °C -2.2 °C 1020.2 hPa Calm     89.3% 0 mm 216 W/m2
09:24 -0.2 °C -1.8 °C 1020.2 hPa Calm     89% 0 mm 290 W/m2
09:29 0.3 °C -1.3 °C 1020.2 hPa Calm     88.4% 0 mm 290 W/m2
09:34 0.8 °C -1.2 °C 1020.2 hPa WNW 0.2 km/h 3.2 km/h 86.5% 0 mm 204 W/m2
09:39 1.3 °C -1.1 °C 1019.9 hPa WNW 0.2 km/h 3.2 km/h 84.1% 0 mm 243 W/m2
09:44 1.8 °C -0.9 °C 1019.9 hPa WNW 0.5 km/h 3.2 km/h 82% 0 mm 209 W/m2
09:49 2.3 °C -0.9 °C 1019.9 hPa WNW 0.8 km/h 4.8 km/h 79.8% 0 mm 192 W/m2
09:54 2.7 °C -0.8 °C 1019.9 hPa WNW 1.1 km/h 6.4 km/h 77.9% 0 mm 197 W/m2
09:59 3 °C -0.8 °C 1019.9 hPa WNW 2.6 km/h 8 km/h 75.8% 0 mm 213 W/m2
10:04 3.3 °C -0.8 °C 1019.9 hPa NW 1.1 km/h 8 km/h 74.4% 0 mm 199 W/m2
10:09 3.6 °C -0.7 °C 1019.9 hPa NW 6.1 km/h 16.1 km/h 73.6% 0 mm 213 W/m2
10:14 3.9 °C -0.9 °C 1019.9 hPa NW 5 km/h 16.1 km/h 70.5% 0 mm 244 W/m2
10:19 4.2 °C -0.9 °C 1019.9 hPa NNW 4.5 km/h 16.1 km/h 69.8% 0 mm 206 W/m2
10:24 4.3 °C -1.2 °C 1019.9 hPa NW 3.9 km/h 16.1 km/h 67.6% 0 mm 229 W/m2
10:29 4.3 °C -1.1 °C 1019.9 hPa North 3.9 km/h 16.1 km/h 67.6% 0 mm 221 W/m2
10:34 4.5 °C -1.1 °C 1019.9 hPa NNW 2.1 km/h 16.1 km/h 67.3% 0 mm 190 W/m2
10:39 4.6 °C -1 °C 1019.5 hPa North 1.3 km/h 8 km/h 66.9% 0 mm 223 W/m2
10:44 4.7 °C -1.1 °C 1019.5 hPa NNW 3.2 km/h 8 km/h 66.4% 0 mm 279 W/m2
10:49 4.8 °C -1.1 °C 1019.5 hPa NNW 5.8 km/h 17.7 km/h 65.7% 0 mm 258 W/m2
10:54 4.8 °C -1.3 °C 1019.2 hPa NNE 4.3 km/h 17.7 km/h 64.5% 0 mm 172 W/m2
10:59 4.8 °C -1.4 °C 1019.2 hPa North 4.8 km/h 17.7 km/h 64.3% 0 mm 172 W/m2
11:04 4.7 °C -1.4 °C 1019.2 hPa NNW 3.1 km/h 17.7 km/h 64.5% 0 mm 169 W/m2
11:09 4.7 °C -1.4 °C 1019.2 hPa NW 3.4 km/h 9.7 km/h 64.5% 0 mm 183 W/m2
11:10 4.7 °C -1.3 °C 1019.2 hPa NW 2.9 km/h 9.7 km/h 65% 0 mm 190 W/m2
11:30 5.1 °C -1.1 °C 1018.8 hPa NW 3.2 km/h 9.7 km/h 64% 0 mm 173 W/m2
12:04 5.4 °C -1.3 °C 1018.8 hPa NNW 2.4 km/h 9.7 km/h 62.2% 0 mm 202 W/m2
12:09 5.4 °C -1.5 °C 1018.2 hPa WNW 1.9 km/h 9.7 km/h 61.2% 0 mm 202 W/m2
12:14 5.4 °C -1.4 °C 1018.2 hPa NW 6.8 km/h 14.5 km/h 61.2% 0 mm 353 W/m2
12:19 5.5 °C -1.6 °C 1018.5 hPa NW 7.6 km/h 20.9 km/h 60.5% 0 mm 225 W/m2
12:24 5.4 °C -1.8 °C 1018.5 hPa NW 5.1 km/h 20.9 km/h 59.5% 0 mm 232 W/m2
12:29 5.4 °C -1.7 °C 1018.5 hPa NNW 3.7 km/h 20.9 km/h 59.9% 0 mm 195 W/m2
12:34 5.5 °C -1.6 °C 1018.5 hPa NNW 3.4 km/h 20.9 km/h 60% 0 mm 276 W/m2
12:39 5.7 °C -1.6 °C 1018.5 hPa North 6.1 km/h 16.1 km/h 59.4% 0 mm 313 W/m2
12:44 5.8 °C -1.4 °C 1018.2 hPa NNW 4.7 km/h 16.1 km/h 59.4% 0 mm 612 W/m2
12:49 6.2 °C -1.2 °C 1018.2 hPa North 7.4 km/h 19.3 km/h 59.1% 0 mm 478 W/m2
12:54 6.4 °C -1.4 °C 1018.2 hPa NW 7.9 km/h 19.3 km/h 57% 0 mm 281 W/m2
12:59 6.2 °C -1.8 °C 1018.2 hPa NW 7.7 km/h 25.7 km/h 56.5% 0 mm 309 W/m2
13:04 6 °C -1.8 °C 1018.2 hPa NW 7.7 km/h 25.7 km/h 57.1% 0 mm 244 W/m2
13:09 5.9 °C -1.9 °C 1018.2 hPa NW 7.7 km/h 19.3 km/h 57% 0 mm 239 W/m2
13:14 5.7 °C -2.1 °C 1018.2 hPa NW 5.3 km/h 19.3 km/h 57.2% 0 mm 287 W/m2
13:19 5.7 °C -2.1 °C 1018.2 hPa WNW 7.7 km/h 19.3 km/h 57.3% 0 mm 457 W/m2
13:24 5.7 °C -2.2 °C 1017.8 hPa WNW 7.1 km/h 19.3 km/h 56.8% 0 mm 320 W/m2
13:29 5.9 °C -2.1 °C 1017.8 hPa NW 5.6 km/h 19.3 km/h 56.7% 0 mm 285 W/m2
13:34 6 °C -2.2 °C 1017.8 hPa WNW 9 km/h 19.3 km/h 55.6% 0 mm 504 W/m2
13:39 5.9 °C -2.4 °C 1017.8 hPa NW 9.8 km/h 24.1 km/h 55.1% 0 mm 294 W/m2
13:44 5.8 °C -2.3 °C 1017.8 hPa NW 7.7 km/h 24.1 km/h 56% 0 mm 311 W/m2
13:49 5.7 °C -2.3 °C 1018.2 hPa NW 6.9 km/h 24.1 km/h 56.2% 0 mm 311 W/m2
13:54 5.6 °C -2.4 °C 1018.2 hPa NW 6.8 km/h 24.1 km/h 56.2% 0 mm 158 W/m2
13:59 5.4 °C -2.4 °C 1017.8 hPa NW 9 km/h 24.1 km/h 57% 0 mm 179 W/m2
14:04 5.3 °C -2.6 °C 1017.8 hPa WNW 9.3 km/h 24.1 km/h 56.8% 0 mm 158 W/m2
14:09 5.2 °C -2.4 °C 1017.8 hPa WNW 4.5 km/h 22.5 km/h 57.9% 0 mm 123 W/m2
14:14 5.1 °C -2.7 °C 1017.8 hPa NW 5.1 km/h 22.5 km/h 57.1% 0 mm 100 W/m2
14:19 4.9 °C -2.7 °C 1017.8 hPa NNW 7.7 km/h 22.5 km/h 57.6% 0 mm 142 W/m2
14:24 4.8 °C -2.7 °C 1018.2 hPa NW 5.3 km/h 22.5 km/h 58.1% 0 mm 213 W/m2
14:29 4.9 °C -2.6 °C 1017.8 hPa NW 9 km/h 22.5 km/h 58.6% 0 mm 262 W/m2
14:34 4.9 °C -2.8 °C 1017.8 hPa NW 6.4 km/h 22.5 km/h 57% 0 mm 70 W/m2
14:39 4.8 °C -2.9 °C 1017.5 hPa NNW 1.4 km/h 17.7 km/h 57.3% 0 mm 72 W/m2
14:44 4.7 °C -2.8 °C 1017.8 hPa NW 5.3 km/h 17.7 km/h 58% 0 mm 72 W/m2
14:49 4.6 °C -3 °C 1017.8 hPa WNW 3.2 km/h 17.7 km/h 58% 0 mm 67 W/m2
14:54 4.4 °C -3.1 °C 1017.8 hPa NNW 5.3 km/h 17.7 km/h 58% 0 mm 81 W/m2
14:59 4.3 °C -3.1 °C 1017.8 hPa NW 5.6 km/h 17.7 km/h 58.5% 0 mm 86 W/m2
15:04 4.3 °C -3 °C 1017.8 hPa WNW 6.4 km/h 17.7 km/h 59% 0 mm 84 W/m2
15:09 4.3 °C -3 °C 1017.8 hPa NW 5.8 km/h 17.7 km/h 59% 0 mm 63 W/m2
15:14 4.2 °C -3.1 °C 1017.8 hPa NW 2.3 km/h 17.7 km/h 59% 0 mm 44 W/m2
15:19 4.2 °C -3 °C 1017.8 hPa NW 4.3 km/h 17.7 km/h 59.5% 0 mm 49 W/m2
15:24 4.2 °C -2.9 °C 1017.8 hPa NW 5.8 km/h 17.7 km/h 59.9% 0 mm 53 W/m2
15:29 4.1 °C -2.9 °C 1017.8 hPa NW 3.7 km/h 17.7 km/h 60% 0 mm 58 W/m2
15:34 4.1 °C -3 °C 1017.8 hPa WNW 4.2 km/h 17.7 km/h 60% 0 mm 56 W/m2
15:39 4.1 °C -3 °C 1017.8 hPa NW 1.1 km/h 14.5 km/h 60% 0 mm 42 W/m2
15:44 4.1 °C -2.9 °C 1017.8 hPa NNW 1.6 km/h 14.5 km/h 60.2% 0 mm 42 W/m2
15:49 4.1 °C -2.8 °C 1017.5 hPa NNW 1.9 km/h 14.5 km/h 61% 0 mm 28 W/m2
15:54 4 °C -2.8 °C 1017.8 hPa North 1.8 km/h 14.5 km/h 61% 0 mm 28 W/m2
15:59 3.9 °C -2.9 °C 1017.8 hPa NNW 0.8 km/h 14.5 km/h 61% 0 mm 25 W/m2
16:04 3.9 °C -2.8 °C 1017.8 hPa NNW 1 km/h 3.2 km/h 61.6% 0 mm 26 W/m2
16:09 3.9 °C -2.8 °C 1017.8 hPa Calm   3.2 km/h 61.5% 0 mm 28 W/m2
16:14 3.8 °C -2.8 °C 1017.8 hPa NNW 1.3 km/h 6.4 km/h 62% 0 mm 28 W/m2
16:19 3.8 °C -2.8 °C 1017.8 hPa NNW 2.6 km/h 8 km/h 62% 0 mm 21 W/m2
16:24 3.8 °C -2.8 °C 1017.5 hPa North 1.1 km/h 8 km/h 62% 0 mm 14 W/m2
16:29 3.7 °C -2.9 °C 1017.5 hPa North 0.2 km/h 8 km/h 62% 0 mm 11 W/m2
16:34 3.6 °C -2.9 °C 1017.5 hPa NNW 1.4 km/h 8 km/h 62% 0 mm 7 W/m2
16:39 3.6 °C -2.8 °C 1017.5 hPa NNW 1 km/h 8 km/h 62.9% 0 mm 0 W/m2
16:44 3.5 °C -2.9 °C 1017.5 hPa NNW 0.2 km/h 8 km/h 63% 0 mm 0 W/m2
16:49 3.4 °C -3 °C 1017.5 hPa NNW 0.8 km/h 8 km/h 63% 0 mm 0 W/m2
16:54 3.3 °C -3.1 °C 1017.5 hPa Calm   8 km/h 63% 0 mm 0 W/m2
16:59 3.3 °C -3.1 °C 1017.5 hPa Calm   8 km/h 63.1% 0 mm 0 W/m2
17:04 3.2 °C -3 °C 1017.5 hPa Calm   8 km/h 63.6% 0 mm 0 W/m2
17:09 3.2 °C -3 °C 1017.5 hPa Calm     64% 0 mm 0 W/m2
17:14 3.1 °C -3.1 °C 1017.5 hPa Calm     64% 0 mm 0 W/m2
17:19 3.1 °C -3.1 °C 1017.5 hPa Calm     64% 0 mm 0 W/m2
17:24 3 °C -3.1 °C 1017.5 hPa Calm     64% 0 mm 0 W/m2
17:29 2.9 °C -3.2 °C 1017.5 hPa Calm     64% 0 mm 0 W/m2
17:34 2.9 °C -3.2 °C 1017.5 hPa Calm     64.1% 0 mm 0 W/m2
17:39 2.9 °C -3.1 °C 1017.5 hPa Calm     65% 0 mm 0 W/m2
17:44 2.8 °C -3.1 °C 1017.5 hPa Calm     65% 0 mm 0 W/m2
17:49 2.8 °C -3.1 °C 1017.8 hPa Calm     65% 0 mm 0 W/m2
17:54 2.7 °C -3.2 °C 1017.8 hPa Calm     65% 0 mm 0 W/m2
17:59 2.7 °C -3 °C 1017.8 hPa Calm     66% 0 mm 0 W/m2
18:04 2.7 °C -3.1 °C 1017.8 hPa Calm     66% 0 mm 0 W/m2
18:09 2.6 °C -3.1 °C 1017.8 hPa Calm     66% 0 mm 0 W/m2
18:14 2.6 °C -3.1 °C 1017.8 hPa Calm     66% 0 mm 0 W/m2
18:19 2.6 °C -3.1 °C 1017.8 hPa Calm     66.1% 0 mm 0 W/m2
18:24 2.6 °C -3.2 °C 1017.8 hPa Calm     66% 0 mm 0 W/m2
18:29 2.5 °C -3.1 °C 1017.8 hPa Calm     66.5% 0 mm 0 W/m2
18:34 2.5 °C -3 °C 1017.8 hPa Calm     67% 0 mm 0 W/m2
18:39 2.4 °C -3.1 °C 1017.8 hPa Calm     67% 0 mm 0 W/m2
18:44 2.4 °C -3.1 °C 1017.8 hPa Calm     67% 0 mm 0 W/m2
18:49 2.4 °C -3.1 °C 1017.8 hPa Calm     67% 0 mm 0 W/m2
18:54 2.4 °C -3.1 °C 1017.8 hPa Calm     67% 0 mm 0 W/m2
18:59 2.4 °C -3.1 °C 1017.8 hPa Calm     67% 0 mm 0 W/m2
19:04 2.4 °C -3.1 °C 1017.8 hPa Calm     67% 0 mm 0 W/m2
19:09 2.3 °C -3.1 °C 1017.8 hPa Calm     67.4% 0 mm 0 W/m2
19:14 2.3 °C -2.9 °C 1017.8 hPa Calm     68% 0 mm 0 W/m2
19:19 2.3 °C -3 °C 1017.8 hPa Calm     68% 0 mm 0 W/m2
19:24 2.3 °C -3 °C 1017.8 hPa Calm     68% 0 mm 0 W/m2
19:29 2.3 °C -3 °C 1017.8 hPa Calm     68% 0 mm 0 W/m2
19:34 2.3 °C -3 °C 1017.5 hPa Calm     68% 0 mm 0 W/m2
19:39 2.2 °C -3 °C 1017.8 hPa Calm     68.2% 0 mm 0 W/m2
19:44 2.2 °C -3.1 °C 1017.8 hPa Calm     68% 0 mm 0 W/m2
19:49 2.2 °C -2.9 °C 1017.8 hPa Calm     69% 0 mm 0 W/m2
19:54 2.2 °C -2.9 °C 1017.8 hPa Calm     69% 0 mm 0 W/m2
19:59 2.2 °C -2.8 °C 1017.8 hPa Calm     69.2% 0 mm 0 W/m2
20:00 2.2 °C -2.9 °C 1017.8 hPa Calm     69% 0 mm 0 W/m2
20:09 2.1 °C -3 °C 1017.8 hPa Calm     69% 0 mm 0 W/m2
20:14 2.1 °C -3.1 °C 1017.8 hPa Calm     69% 0 mm 0 W/m2
20:19 2.1 °C -2.9 °C 1017.8 hPa Calm     69.6% 0 mm 0 W/m2
20:24 2 °C -2.9 °C 1017.5 hPa Calm     70% 0 mm 0 W/m2
20:29 2 °C -2.9 °C 1017.5 hPa Calm     70% 0 mm 0 W/m2
20:34 2 °C -2.9 °C 1017.5 hPa Calm     70% 0 mm 0 W/m2
20:39 2 °C -2.9 °C 1017.5 hPa Calm     70% 0 mm 0 W/m2
20:44 2 °C -2.9 °C 1017.8 hPa Calm     70% 0 mm 0 W/m2
20:49 2 °C -2.9 °C 1017.8 hPa Calm     70% 0 mm 0 W/m2
20:54 2 °C -2.9 °C 1017.8 hPa Calm     70% 0 mm 0 W/m2
20:59 1.9 °C -2.8 °C 1017.8 hPa Calm     70.6% 0 mm 0 W/m2
21:04 1.9 °C -2.8 °C 1017.8 hPa Calm     71% 0 mm 0 W/m2
21:09 1.9 °C -2.9 °C 1017.8 hPa Calm     70.3% 0 mm 0 W/m2
21:14 1.9 °C -2.8 °C 1017.8 hPa Calm     71% 0 mm 0 W/m2
21:19 1.9 °C -2.8 °C 1017.8 hPa Calm     71% 0 mm 0 W/m2
21:24 1.9 °C -2.7 °C 1017.8 hPa Calm     71.8% 0 mm 0 W/m2
21:29 1.9 °C -2.6 °C 1017.8 hPa Calm     72% 0 mm 0 W/m2
21:34 1.9 °C -2.8 °C 1017.8 hPa Calm     71.1% 0 mm 0 W/m2
21:39 1.9 °C -2.8 °C 1017.8 hPa Calm     71% 0 mm 0 W/m2
21:44 1.9 °C -2.8 °C 1017.8 hPa Calm     71% 0 mm 0 W/m2
21:49 1.9 °C -2.8 °C 1017.8 hPa Calm     71% 0 mm 0 W/m2
21:54 1.9 °C -2.8 °C 1017.8 hPa Calm     71% 0 mm 0 W/m2
21:59 1.9 °C -2.8 °C 1017.8 hPa Calm     71% 0 mm 0 W/m2
22:04 1.9 °C -2.8 °C 1018.2 hPa Calm     71% 0 mm 0 W/m2
22:09 1.8 °C -2.8 °C 1018.2 hPa Calm     71% 0 mm 0 W/m2
22:14 1.8 °C -2.9 °C 1018.2 hPa Calm     71% 0 mm 0 W/m2
22:19 1.8 °C -2.9 °C 1018.2 hPa Calm     71% 0 mm 0 W/m2
22:24 1.7 °C -2.9 °C 1018.2 hPa Calm     71% 0 mm 0 W/m2
22:29 1.7 °C -2.9 °C 1018.2 hPa Calm     71.3% 0 mm 0 W/m2
22:34 1.7 °C -2.8 °C 1018.2 hPa Calm     72% 0 mm 0 W/m2
22:39 1.6 °C -2.9 °C 1018.2 hPa Calm     72% 0 mm 0 W/m2
22:44 1.6 °C -2.9 °C 1018.2 hPa Calm     72% 0 mm 0 W/m2
22:49 1.6 °C -2.9 °C 1018.2 hPa Calm     72% 0 mm 0 W/m2
22:54 1.6 °C -2.9 °C 1018.2 hPa Calm     72% 0 mm 0 W/m2
22:59 1.6 °C -2.9 °C 1018.2 hPa Calm     72% 0 mm 0 W/m2
23:00 1.6 °C -2.9 °C 1018.2 hPa Calm     72% 0 mm 0 W/m2
23:09 1.4 °C -2.8 °C 1017.8 hPa Calm     73% 0 mm 0 W/m2
23:14 1.4 °C -2.8 °C 1017.8 hPa Calm     73% 0 mm 0 W/m2
23:19 1.4 °C -2.8 °C 1017.8 hPa Calm     73% 0 mm 0 W/m2
23:24 1.4 °C -2.9 °C 1017.8 hPa Calm     73% 0 mm 0 W/m2
23:29 1.4 °C -2.9 °C 1017.8 hPa Calm     73% 0 mm 0 W/m2
23:34 1.4 °C -2.9 °C 1017.5 hPa Calm     73% 0 mm 0 W/m2
23:39 1.4 °C -2.9 °C 1017.5 hPa Calm     73% 0 mm 0 W/m2
23:44 1.4 °C -2.9 °C 1017.5 hPa Calm     73% 0 mm 0 W/m2
23:49 1.4 °C -2.8 °C 1017.5 hPa Calm     73% 0 mm 0 W/m2
23:54 1.5 °C -2.8 °C 1017.5 hPa Calm     73% 0 mm 0 W/m2
23:59 1.4 °C -2.8 °C 1017.5 hPa Calm     73% 0 mm 0 W/m2
Hartford County Weather
Compliments of Weather Underground - 2 mb